Time;durP1;ratioP1;P1;durP2;ratioP2;P2;SDS_P1;SDS_P2;PMS_P1;PMS_P2;Temp;Humidity;BMP_temperature;BMP_pressure;BME280_temperature;BME280_humidity;BME280_pressure;Samples;Min_cycle;Max_cycle;Signal;HPM_P1;HPM_P2
2022/09/18 00:02:18;;;;;;;4.68;0.80;;;;;;;9.36;100.00;98782.03;5031556;28;20091;-69
2022/09/18 00:04:43;;;;;;;4.38;0.70;;;;;;;9.34;100.00;98765.19;5023289;28;20025;-69
2022/09/18 00:07:09;;;;;;;3.83;0.70;;;;;;;9.27;100.00;98762.44;5039366;28;20070;-68
2022/09/18 00:09:34;;;;;;;5.72;0.85;;;;;;;9.36;100.00;98777.47;5051744;28;20036;-68
2022/09/18 00:11:59;;;;;;;4.95;0.70;;;;;;;9.36;100.00;98776.63;5049236;28;20018;-69
2022/09/18 00:14:25;;;;;;;3.20;0.55;;;;;;;9.38;100.00;98779.97;5050690;28;20036;-68
2022/09/18 00:16:51;;;;;;;4.65;0.90;;;;;;;9.38;100.00;98777.28;5044829;28;20033;-69
2022/09/18 00:19:18;;;;;;;3.85;1.00;;;;;;;9.39;100.00;98773.53;5039318;28;20072;-68
2022/09/18 00:21:46;;;;;;;3.58;0.70;;;;;;;9.40;100.00;98781.44;5027525;28;20041;-69
2022/09/18 00:24:11;;;;;;;6.57;1.13;;;;;;;9.32;100.00;98753.75;5023311;28;20671;-69
2022/09/18 00:26:37;;;;;;;3.47;0.93;;;;;;;9.45;100.00;98786.25;5028760;28;20405;-69
2022/09/18 00:29:03;;;;;;;6.43;0.80;;;;;;;9.47;100.00;98778.78;5025533;28;20458;-68
2022/09/18 00:31:31;;;;;;;6.65;0.98;;;;;;;9.46;100.00;98771.72;5040876;28;20552;-69
2022/09/18 00:33:58;;;;;;;3.45;0.88;;;;;;;9.35;100.00;98770.41;5041802;28;20368;-69
2022/09/18 00:36:24;;;;;;;6.55;0.70;;;;;;;9.38;100.00;98759.22;5028209;28;20123;-69
2022/09/18 00:38:50;;;;;;;4.00;0.68;;;;;;;9.44;100.00;98776.50;5030172;28;20026;-69
2022/09/18 00:41:24;;;;;;;6.13;0.65;;;;;;;9.31;100.00;98760.19;5030661;28;20037;-69
2022/09/18 00:43:58;;;;;;;6.63;0.90;;;;;;;9.41;100.00;98783.13;5023831;28;20394;-69
2022/09/18 00:46:33;;;;;;;1.98;0.60;;;;;;;9.30;100.00;98756.66;5020727;28;20030;-69
2022/09/18 00:49:10;;;;;;;7.97;0.85;;;;;;;9.42;100.00;98776.66;5024667;28;20511;-68
2022/09/18 00:51:37;;;;;;;4.47;0.70;;;;;;;9.42;100.00;98768.56;5027341;28;20036;-69
2022/09/18 00:54:10;;;;;;;1.52;0.60;;;;;;;9.36;100.00;98768.53;5026597;28;20074;-69
2022/09/18 00:56:36;;;;;;;3.60;0.68;;;;;;;9.40;100.00;98772.50;5026835;28;20048;-69
2022/09/18 00:59:03;;;;;;;7.40;0.68;;;;;;;9.44;100.00;98771.09;5024957;28;20499;-69
2022/09/18 01:01:28;;;;;;;6.90;0.93;;;;;;;9.45;100.00;98775.44;5028707;28;20033;-69
2022/09/18 01:03:53;;;;;;;5.15;0.80;;;;;;;9.33;100.00;98775.16;5032499;28;20027;-69
2022/09/18 01:06:26;;;;;;;5.85;0.80;;;;;;;9.35;100.00;98778.50;5046074;28;20433;-69
2022/09/18 01:09:17;;;;;;;6.43;0.70;;;;;;;9.32;100.00;98781.56;5032461;28;20109;-69
2022/09/18 01:12:00;;;;;;;3.03;1.00;;;;;;;9.21;100.00;98782.13;5031572;28;20117;-69
2022/09/18 01:14:35;;;;;;;7.07;1.15;;;;;;;8.98;100.00;98764.25;5028527;28;20092;-68
2022/09/18 01:17:38;;;;;;;9.75;0.98;;;;;;;9.15;100.00;98780.22;5027849;28;20029;-69
2022/09/18 01:20:10;;;;;;;3.95;0.73;;;;;;;9.10;100.00;98777.25;5026454;28;20413;-69
2022/09/18 01:23:05;;;;;;;5.15;0.73;;;;;;;9.05;100.00;98780.53;5033368;28;20040;-70
2022/09/18 01:25:44;;;;;;;3.92;1.23;;;;;;;9.00;100.00;98778.41;5027659;28;20055;-69
2022/09/18 01:28:29;;;;;;;6.30;0.90;;;;;;;8.99;100.00;98782.16;5030006;28;20029;-68
2022/09/18 01:31:00;;;;;;;7.22;0.93;;;;;;;9.00;100.00;98781.09;5028762;28;20119;-71
2022/09/18 01:33:43;;;;;;;2.08;0.70;;;;;;;8.98;100.00;98785.84;5029578;28;20032;-69
2022/09/18 01:36:13;;;;;;;5.72;0.90;;;;;;;9.00;100.00;98778.41;5032103;28;20033;-68
2022/09/18 01:38:50;;;;;;;6.57;1.50;;;;;;;9.05;100.00;98785.94;5032446;28;20025;-71
2022/09/18 01:41:24;;;;;;;2.60;0.73;;;;;;;9.07;100.00;98774.94;5028122;28;20032;-71
2022/09/18 01:43:59;;;;;;;1.52;0.63;;;;;;;9.03;100.00;98770.97;5029948;28;20025;-71
2022/09/18 01:46:24;;;;;;;3.80;0.70;;;;;;;8.99;100.00;98781.31;5030510;28;20034;-71
2022/09/18 01:48:56;;;;;;;5.55;1.00;;;;;;;8.98;100.00;98775.06;5025791;28;20025;-71
2022/09/18 01:51:27;;;;;;;2.63;0.95;;;;;;;8.87;100.00;98754.00;5031634;28;20040;-69
2022/09/18 01:54:00;;;;;;;5.68;1.02;;;;;;;8.92;100.00;98765.06;5030671;28;20021;-69
2022/09/18 01:56:32;;;;;;;16.02;1.17;;;;;;;9.03;100.00;98776.34;5031862;28;20032;-69
2022/09/18 01:59:02;;;;;;;8.82;1.08;;;;;;;8.88;100.00;98758.38;5027173;28;20406;-71
2022/09/18 02:01:31;;;;;;;3.17;0.85;;;;;;;9.06;100.00;98765.16;5033070;28;20033;-68
2022/09/18 02:04:03;;;;;;;2.47;1.00;;;;;;;9.02;100.00;98758.50;5029753;28;20656;-69
2022/09/18 02:06:35;;;;;;;4.88;0.90;;;;;;;9.05;100.00;98761.63;5033847;28;20029;-69
2022/09/18 02:09:01;;;;;;;3.42;0.88;;;;;;;9.05;100.00;98768.91;5024744;28;20056;-69
2022/09/18 02:11:27;;;;;;;4.97;1.20;;;;;;;9.07;100.00;98765.00;5030373;28;20025;-69
2022/09/18 02:13:52;;;;;;;6.57;1.52;;;;;;;9.09;100.00;98760.22;5031891;28;20022;-69
2022/09/18 02:16:29;;;;;;;2.38;1.05;;;;;;;9.06;100.00;98763.28;5041375;28;20025;-69
2022/09/18 02:18:59;;;;;;;3.53;0.80;;;;;;;9.00;100.00;98756.81;5032501;28;20100;-69
2022/09/18 02:21:29;;;;;;;5.10;1.15;;;;;;;8.89;100.00;98737.63;5032727;28;20021;-69
2022/09/18 02:23:59;;;;;;;7.50;1.10;;;;;;;8.93;100.00;98739.75;5030784;28;20037;-68
2022/09/18 02:26:25;;;;;;;6.15;1.20;;;;;;;8.99;100.00;98757.03;5027170;28;20021;-68
2022/09/18 02:28:51;;;;;;;3.45;0.90;;;;;;;8.90;100.00;98748.22;5030469;28;20048;-69
2022/09/18 02:31:17;;;;;;;4.50;1.20;;;;;;;8.99;100.00;98754.34;5030718;28;20498;-69
2022/09/18 02:33:42;;;;;;;1.35;1.00;;;;;;;8.95;100.00;98763.84;5047566;28;20092;-69
2022/09/18 02:36:29;;;;;;;11.25;1.40;;;;;;;8.98;100.00;98753.47;5046802;28;20017;-69
2022/09/18 02:39:06;;;;;;;5.53;1.23;;;;;;;8.96;100.00;98760.09;5026482;28;20017;-69
2022/09/18 02:42:08;;;;;;;3.63;0.90;;;;;;;8.92;100.00;98758.81;5030754;28;20411;-69
2022/09/18 02:44:52;;;;;;;3.83;1.23;;;;;;;8.99;100.00;98765.13;5029293;28;20487;-69
2022/09/18 02:47:39;;;;;;;4.82;1.10;;;;;;;9.02;100.00;98758.50;5021725;28;20692;-69
2022/09/18 02:50:16;;;;;;;2.60;0.90;;;;;;;9.03;100.00;98769.09;5028216;28;20079;-69
2022/09/18 02:52:50;;;;;;;4.00;1.20;;;;;;;9.02;100.00;98770.13;5029422;28;20026;-69
2022/09/18 02:55:20;;;;;;;8.02;1.10;;;;;;;9.02;100.00;98770.13;5047572;28;20391;-68
2022/09/18 02:57:55;;;;;;;3.15;1.10;;;;;;;8.99;100.00;98754.34;5025043;28;20041;-71
2022/09/18 03:00:22;;;;;;;6.93;1.00;;;;;;;9.05;100.00;98758.13;5026455;28;20087;-71
2022/09/18 03:02:50;;;;;;;5.07;1.02;;;;;;;8.98;100.00;98753.47;5030199;28;20025;-71
2022/09/18 03:05:16;;;;;;;3.45;1.10;;;;;;;9.02;100.00;98751.25;5043700;28;20430;-70
2022/09/18 03:07:41;;;;;;;4.60;1.15;;;;;;;8.96;100.00;98755.56;5025722;28;20033;-71
2022/09/18 03:10:08;;;;;;;4.68;0.98;;;;;;;8.85;100.00;98730.94;5026583;28;20037;-71
2022/09/18 03:12:34;;;;;;;6.38;1.38;;;;;;;8.99;100.00;98755.16;5027369;28;20044;-71
2022/09/18 03:14:59;;;;;;;7.68;1.20;;;;;;;8.93;100.00;98752.38;5043708;28;20498;-70
2022/09/18 03:17:24;;;;;;;4.32;1.50;;;;;;;8.95;100.00;98747.66;5031426;28;20105;-71
2022/09/18 03:19:49;;;;;;;3.20;1.20;;;;;;;8.96;100.00;98750.16;5040679;28;20483;-71
2022/09/18 03:22:15;;;;;;;3.63;1.02;;;;;;;8.92;100.00;98754.25;5027841;28;20029;-71
2022/09/18 03:24:40;;;;;;;5.85;1.15;;;;;;;8.93;100.00;98742.47;5030764;28;20573;-71
2022/09/18 03:27:05;;;;;;;3.10;1.00;;;;;;;8.92;100.00;98759.66;5027789;28;20057;-71
2022/09/18 03:29:31;;;;;;;1.88;0.90;;;;;;;8.94;100.00;98749.50;5030252;28;20494;-71
2022/09/18 03:31:57;;;;;;;4.60;1.10;;;;;;;8.95;100.00;98748.47;5029517;28;20060;-71
2022/09/18 03:34:22;;;;;;;4.35;1.10;;;;;;;8.90;100.00;98748.22;5026914;28;20491;-71
2022/09/18 03:36:47;;;;;;;5.15;1.42;;;;;;;8.87;100.00;98751.31;5030263;28;20033;-71
2022/09/18 03:39:13;;;;;;;3.88;1.10;;;;;;;8.91;100.00;98752.59;5026601;28;20036;-71
2022/09/18 03:41:38;;;;;;;3.58;1.20;;;;;;;8.90;100.00;98753.63;5025812;28;20025;-71
2022/09/18 03:44:04;;;;;;;5.13;1.38;;;;;;;8.89;100.00;98748.44;5029119;28;20045;-70
2022/09/18 03:46:29;;;;;;;2.78;1.40;;;;;;;8.87;100.00;98754.00;5027790;28;20544;-71
2022/09/18 03:48:54;;;;;;;2.78;1.10;;;;;;;8.86;100.00;98746.13;5029357;28;20017;-71
2022/09/18 03:51:20;;;;;;;3.50;1.42;;;;;;;8.91;100.00;98755.31;5030354;28;20021;-71
2022/09/18 03:53:46;;;;;;;7.82;1.27;;;;;;;8.91;100.00;98760.69;5027474;28;20033;-71
2022/09/18 03:56:13;;;;;;;4.38;1.23;;;;;;;8.89;100.00;98765.44;5025098;28;20167;-71
2022/09/18 03:58:38;;;;;;;3.08;0.95;;;;;;;8.84;100.00;98751.69;5028817;28;20459;-71
2022/09/18 04:01:05;;;;;;;3.65;1.17;;;;;;;8.92;100.00;98762.34;5021741;28;20147;-71
2022/09/18 04:03:31;;;;;;;2.50;0.82;;;;;;;8.91;100.00;98763.41;5028707;28;20040;-71
2022/09/18 04:05:57;;;;;;;3.03;0.95;;;;;;;8.88;100.00;98761.09;5029000;28;20025;-70
2022/09/18 04:08:22;;;;;;;5.65;1.23;;;;;;;8.65;100.00;98731.59;5029980;28;20031;-71
2022/09/18 04:10:48;;;;;;;3.33;1.20;;;;;;;8.89;100.00;98770.00;5028047;28;20098;-71
2022/09/18 04:13:13;;;;;;;5.45;1.00;;;;;;;8.84;100.00;98758.97;5027839;28;20033;-71
2022/09/18 04:15:38;;;;;;;3.05;1.30;;;;;;;8.87;100.00;98763.97;5027971;28;21666;-71
2022/09/18 04:18:04;;;;;;;5.15;1.20;;;;;;;8.82;100.00;98756.44;5029614;28;20025;-71
2022/09/18 04:20:30;;;;;;;2.63;1.10;;;;;;;8.82;100.00;98764.53;5027128;28;20028;-71
2022/09/18 04:22:58;;;;;;;3.92;1.02;;;;;;;8.83;100.00;98771.63;5023305;28;20031;-71
2022/09/18 04:25:23;;;;;;;5.38;1.20;;;;;;;8.82;100.00;98769.94;5028638;28;20021;-71
2022/09/18 04:27:49;;;;;;;3.00;1.00;;;;;;;8.81;100.00;98752.09;5018963;28;20017;-70
2022/09/18 04:30:14;;;;;;;4.47;1.60;;;;;;;8.80;100.00;98750.41;5029335;28;20051;-71
2022/09/18 04:32:42;;;;;;;2.70;1.10;;;;;;;8.82;100.00;98763.72;5029003;28;20036;-71
2022/09/18 04:35:08;;;;;;;4.35;1.13;;;;;;;8.74;100.00;98760.09;5022813;28;20052;-71
2022/09/18 04:37:33;;;;;;;2.38;1.20;;;;;;;8.85;100.00;98764.16;5020919;28;20032;-71
2022/09/18 04:39:58;;;;;;;2.53;1.02;;;;;;;8.63;100.00;98738.22;5024091;28;20025;-71
2022/09/18 04:42:23;;;;;;;2.55;1.25;;;;;;;8.84;100.00;98767.88;5029503;28;20091;-70
2022/09/18 04:44:49;;;;;;;4.10;1.05;;;;;;;8.84;100.00;98767.88;5023582;28;20063;-71
2022/09/18 04:47:14;;;;;;;5.10;0.82;;;;;;;8.84;100.00;98769.75;5029439;28;20486;-71
2022/09/18 04:49:39;;;;;;;2.70;1.10;;;;;;;8.84;100.00;98773.28;5029723;28;20025;-71
2022/09/18 04:52:04;;;;;;;3.95;1.02;;;;;;;8.81;100.00;98760.19;5025066;28;20029;-71
2022/09/18 04:54:30;;;;;;;2.42;1.10;;;;;;;8.89;100.00;98764.63;5027301;28;20033;-71
2022/09/18 04:56:55;;;;;;;2.38;1.15;;;;;;;8.83;100.00;98759.97;5027868;28;20025;-70
2022/09/18 04:59:21;;;;;;;2.60;1.25;;;;;;;8.96;100.00;98766.34;5029738;28;20029;-71
2022/09/18 05:01:46;;;;;;;4.43;1.15;;;;;;;8.98;100.00;98775.06;5030443;28;20025;-71
2022/09/18 05:04:11;;;;;;;1.52;1.02;;;;;;;8.89;100.00;98765.44;5020984;28;20029;-71
2022/09/18 05:06:37;;;;;;;5.32;0.95;;;;;;;8.97;100.00;98784.19;5024261;28;20026;-71
2022/09/18 05:09:02;;;;;;;4.40;1.20;;;;;;;8.93;100.00;98772.13;5041683;28;20112;-70
2022/09/18 05:11:27;;;;;;;6.10;1.20;;;;;;;8.94;100.00;98778.38;5047633;28;20033;-71
2022/09/18 05:13:55;;;;;;;3.22;0.80;;;;;;;8.99;100.00;98776.75;5029413;28;20075;-72
2022/09/18 05:16:22;;;;;;;2.60;0.90;;;;;;;9.06;100.00;98775.97;5027691;28;20034;-72
2022/09/18 05:18:48;;;;;;;4.40;1.13;;;;;;;9.07;100.00;98788.44;5028359;28;20471;-69
2022/09/18 05:21:14;;;;;;;3.75;1.15;;;;;;;9.02;100.00;98780.94;5025446;28;20043;-70
2022/09/18 05:23:39;;;;;;;3.88;1.20;;;;;;;8.99;100.00;98779.44;5024206;28;20104;-72
2022/09/18 05:26:05;;;;;;;1.98;1.40;;;;;;;8.98;100.00;98775.06;5024892;28;20021;-70
2022/09/18 05:28:31;;;;;;;6.95;1.40;;;;;;;9.01;100.00;98779.22;5026482;28;20087;-70
2022/09/18 05:30:59;;;;;;;4.40;1.70;;;;;;;9.00;100.00;98778.41;5028611;28;20409;-70
2022/09/18 05:33:25;;;;;;;8.70;1.55;;;;;;;9.00;100.00;98782.97;5038873;28;20026;-72
2022/09/18 05:35:53;;;;;;;4.20;1.17;;;;;;;8.95;100.00;98770.06;5022371;28;21119;-71
2022/09/18 05:38:19;;;;;;;6.28;1.25;;;;;;;9.05;100.00;98787.78;5029431;28;20021;-72
2022/09/18 05:40:44;;;;;;;3.25;1.25;;;;;;;8.99;100.00;98789.41;5025539;28;20116;-72
2022/09/18 05:43:10;;;;;;;9.30;1.55;;;;;;;8.98;100.00;98777.75;5021013;28;20029;-73
2022/09/18 05:45:35;;;;;;;3.42;1.88;;;;;;;9.06;100.00;98786.75;5041466;28;20041;-75
2022/09/18 05:48:05;;;;;;;4.82;2.00;;;;;;;9.09;100.00;98783.66;5027921;28;20021;-75
2022/09/18 05:50:31;;;;;;;6.25;2.55;;;;;;;8.97;100.00;98767.19;5030533;28;20457;-75
2022/09/18 05:52:58;;;;;;;6.22;1.80;;;;;;;8.90;100.00;98760.88;5029958;28;20044;-74
2022/09/18 05:55:23;;;;;;;7.43;2.00;;;;;;;8.90;100.00;98772.50;5032274;28;20040;-76
2022/09/18 05:57:54;;;;;;;2.60;1.50;;;;;;;8.90;100.00;98767.09;5030581;28;20143;-76
2022/09/18 06:00:19;;;;;;;4.20;1.88;;;;;;;8.86;100.00;98765.00;5030142;28;20018;-75
2022/09/18 06:02:55;;;;;;;3.17;1.77;;;;;;;9.09;100.00;98789.91;5031244;28;20022;-73
2022/09/18 06:05:22;;;;;;;10.32;2.08;;;;;;;8.94;100.00;98773.78;5032265;28;20013;-75
2022/09/18 06:07:47;;;;;;;6.35;2.20;;;;;;;8.99;100.00;98773.22;5031251;28;20033;-75
2022/09/18 06:10:13;;;;;;;8.27;2.03;;;;;;;9.16;100.00;98792.66;5025645;28;20483;-74
2022/09/18 06:12:38;;;;;;;5.13;2.08;;;;;;;9.15;100.00;98797.22;5046625;28;20022;-76
2022/09/18 06:15:04;;;;;;;6.25;2.05;;;;;;;9.12;100.00;98805.72;5030555;28;20036;-73
2022/09/18 06:17:29;;;;;;;9.75;2.50;;;;;;;9.08;100.00;98790.09;5029838;28;20100;-73
2022/09/18 06:19:54;;;;;;;4.50;2.03;;;;;;;9.12;100.00;98796.78;5029986;28;20082;-74
2022/09/18 06:22:20;;;;;;;3.65;2.00;;;;;;;9.12;100.00;98805.72;5032777;28;20033;-74
2022/09/18 06:24:45;;;;;;;7.75;2.08;;;;;;;9.11;100.00;98789.72;5031812;28;20021;-76
2022/09/18 06:27:11;;;;;;;5.60;2.30;;;;;;;9.14;100.00;98790.19;5030368;28;20033;-74
2022/09/18 06:29:36;;;;;;;5.93;1.98;;;;;;;9.07;100.00;98772.25;5029592;28;20167;-74
2022/09/18 06:32:01;;;;;;;7.10;2.08;;;;;;;9.36;100.00;98807.16;5031437;28;20533;-75
2022/09/18 06:34:27;;;;;;;4.20;1.75;;;;;;;9.30;100.00;98805.25;5032711;28;20022;-75
2022/09/18 06:36:52;;;;;;;6.43;1.88;;;;;;;9.36;100.00;98793.66;5031419;28;20033;-73
2022/09/18 06:39:17;;;;;;;5.78;2.00;;;;;;;9.28;100.00;98783.00;5028937;28;20029;-74
2022/09/18 06:41:42;;;;;;;6.07;1.95;;;;;;;9.34;100.00;98782.22;5027957;28;20036;-75
2022/09/18 06:44:08;;;;;;;4.13;1.88;;;;;;;9.53;100.00;98814.97;5043198;28;20175;-74
2022/09/18 06:46:33;;;;;;;7.18;1.95;;;;;;;9.36;100.00;98793.66;5030261;28;20040;-75
2022/09/18 06:48:58;;;;;;;4.10;1.80;;;;;;;9.59;100.00;98822.31;5027018;28;20163;-74
2022/09/18 06:51:24;;;;;;;4.43;1.73;;;;;;;9.48;100.00;98790.41;5032105;28;20026;-77
2022/09/18 06:53:49;;;;;;;6.03;1.70;;;;;;;9.66;100.00;98820.47;5027279;28;20036;-74
2022/09/18 06:56:14;;;;;;;5.47;2.00;;;;;;;9.77;100.00;98808.28;5032038;28;20029;-75
2022/09/18 06:58:39;;;;;;;3.28;1.40;;;;;;;9.71;100.00;98809.09;5024814;28;20029;-72
2022/09/18 07:01:05;;;;;;;4.55;1.75;;;;;;;9.74;100.00;98817.63;5030561;28;20025;-71
2022/09/18 07:03:31;;;;;;;5.68;1.75;;;;;;;9.84;100.00;98803.75;5027739;28;20045;-71
2022/09/18 07:05:56;;;;;;;5.97;1.67;;;;;;;9.84;100.00;98812.69;5031541;28;20057;-74
2022/09/18 07:08:21;;;;;;;5.65;1.63;;;;;;;9.92;100.00;98802.78;5028895;28;20108;-74
2022/09/18 07:10:47;;;;;;;4.90;1.45;;;;;;;10.04;100.00;98791.19;5032060;28;20168;-73
2022/09/18 07:13:12;;;;;;;8.35;1.35;;;;;;;10.13;100.00;98804.53;5027563;28;20025;-71
2022/09/18 07:15:37;;;;;;;8.43;1.80;;;;;;;10.10;100.00;98811.19;5021735;28;20048;-73
2022/09/18 07:18:04;;;;;;;4.00;1.45;;;;;;;10.12;100.00;98813.69;5030740;28;20030;-74
2022/09/18 07:20:29;;;;;;;5.18;1.70;;;;;;;10.15;100.00;98802.47;5030811;28;20013;-74
2022/09/18 07:23:00;;;;;;;5.55;1.40;;;;;;;10.19;100.00;98812.69;5026660;28;20033;-72
2022/09/18 07:25:27;;;;;;;6.05;1.42;;;;;;;10.18;100.00;98805.59;5027436;28;20475;-74
2022/09/18 07:27:53;;;;;;;3.78;1.10;;;;;;;10.04;100.00;98774.16;5029184;28;20108;-74
2022/09/18 07:30:18;;;;;;;4.32;1.25;;;;;;;10.17;100.00;98819.34;5031830;28;20532;-76
2022/09/18 07:32:44;;;;;;;6.30;1.50;;;;;;;10.13;100.00;98807.25;5045684;28;20031;-74
2022/09/18 07:35:09;;;;;;;6.70;1.67;;;;;;;10.03;100.00;98802.19;5030665;28;20101;-76
2022/09/18 07:37:36;;;;;;;6.40;1.55;;;;;;;10.19;100.00;98799.19;5028126;28;20033;-74
2022/09/18 07:40:01;;;;;;;3.88;1.70;;;;;;;10.15;100.00;98794.38;5031771;28;20025;-75
2022/09/18 07:42:27;;;;;;;5.72;1.50;;;;;;;10.34;100.00;98811.75;5032382;28;20432;-77
2022/09/18 07:44:53;;;;;;;3.22;0.93;;;;;;;10.27;100.00;98808.97;5041196;28;20033;-76
2022/09/18 07:47:18;;;;;;;5.43;1.10;;;;;;;10.44;100.00;98795.97;5033437;28;20047;-71
2022/09/18 07:49:44;;;;;;;2.22;1.10;;;;;;;10.51;100.00;98803.06;5027829;28;20037;-72
2022/09/18 07:52:10;;;;;;;2.13;1.10;;;;;;;10.78;100.00;98811.25;5036338;28;20391;-72
2022/09/18 07:54:35;;;;;;;2.88;1.27;;;;;;;10.55;100.00;98808.91;5024649;28;20105;-74
2022/09/18 07:57:00;;;;;;;3.92;1.25;;;;;;;10.85;100.00;98812.13;5032265;28;20025;-71
2022/09/18 07:59:26;;;;;;;5.38;1.83;;;;;;;10.72;100.00;98804.81;5027929;28;20042;-71
2022/09/18 08:01:54;;;;;;;1.67;0.80;;;;;;;10.93;100.00;98819.22;5029310;28;20040;-72
2022/09/18 08:04:20;;;;;;;4.30;1.23;;;;;;;10.96;100.00;98829.63;5030611;28;20025;-75
2022/09/18 08:06:45;;;;;;;4.05;1.40;;;;;;;10.56;100.00;98812.44;5024349;28;20084;-71
2022/09/18 08:09:10;;;;;;;1.38;1.10;;;;;;;10.73;100.00;98816.44;5030026;28;20626;-72
2022/09/18 08:11:36;;;;;;;3.05;1.13;;;;;;;10.66;100.00;98819.16;5029080;28;20490;-75
2022/09/18 08:14:01;;;;;;;1.83;0.80;;;;;;;10.44;100.00;98813.03;5027663;28;20435;-76
2022/09/18 08:16:26;;;;;;;5.20;1.30;;;;;;;10.69;100.00;98828.75;5030432;28;20021;-71
2022/09/18 08:18:55;;;;;;;3.40;1.35;;;;;;;10.76;100.00;98824.16;5019736;28;20033;-70
2022/09/18 08:21:20;;;;;;;3.15;0.90;;;;;;;10.78;100.00;98832.91;5026674;28;20096;-71
2022/09/18 08:23:45;;;;;;;3.50;0.95;;;;;;;11.03;100.00;98832.34;5020691;28;20116;-68
2022/09/18 08:26:11;;;;;;;2.45;0.98;;;;;;;10.82;100.00;98800.84;5027887;28;20018;-69
2022/09/18 08:28:37;;;;;;;1.90;0.77;;;;;;;11.17;100.00;98820.50;5028725;28;20091;-73
2022/09/18 08:31:02;;;;;;;4.22;1.10;;;;;;;11.33;100.00;98825.50;5030129;28;20033;-72
2022/09/18 08:33:27;;;;;;;1.70;0.60;;;;;;;11.36;100.00;98816.97;5023207;28;20022;-70
2022/09/18 08:35:54;;;;;;;4.97;0.75;;;;;;;11.55;100.00;98834.28;5029611;28;20394;-75
2022/09/18 08:38:20;;;;;;;5.65;1.20;;;;;;;11.53;100.00;98839.06;5024099;28;20052;-72
2022/09/18 08:41:06;;;;;;;6.43;1.65;;;;;;;11.48;100.00;98832.59;5028676;28;20503;-72
2022/09/18 08:44:02;;;;;;;3.92;0.90;;;;;;;11.72;100.00;98828.44;5029996;28;20029;-72
2022/09/18 08:46:42;;;;;;;2.85;0.70;;;;;;;12.10;100.00;98819.63;5028021;28;20499;-72
2022/09/18 08:49:13;;;;;;;2.30;0.90;;;;;;;12.03;100.00;98827.78;5043810;28;20505;-72
2022/09/18 08:51:50;;;;;;;2.22;0.80;;;;;;;12.00;98.13;98814.66;5045892;28;20121;-72
2022/09/18 08:54:23;;;;;;;1.90;0.73;;;;;;;12.17;97.25;98823.16;5030861;28;20104;-73
2022/09/18 08:56:50;;;;;;;2.47;0.80;;;;;;;12.24;97.86;98807.69;5044651;28;20087;-72
2022/09/18 08:59:22;;;;;;;1.98;0.82;;;;;;;12.06;98.38;98816.50;5038621;28;20038;-75
2022/09/18 09:01:59;;;;;;;0.98;0.75;;;;;;;11.98;97.27;98825.69;5028177;28;20084;-73
2022/09/18 09:04:28;;;;;;;2.53;0.75;;;;;;;11.60;98.80;98839.88;5042112;28;20013;-72
2022/09/18 09:07:29;;;;;;;1.75;0.90;;;;;;;11.78;98.88;98827.56;5028478;28;20075;-72
2022/09/18 09:09:57;;;;;;;4.45;0.80;;;;;;;11.87;99.30;98834.50;5026528;28;20037;-73
2022/09/18 09:12:31;;;;;;;4.28;1.13;;;;;;;11.71;100.00;98834.88;5021476;28;20025;-71
2022/09/18 09:15:02;;;;;;;4.47;0.98;;;;;;;11.63;99.48;98823.22;5042517;28;20026;-72
2022/09/18 09:17:45;;;;;;;3.10;1.05;;;;;;;11.68;100.00;98838.84;5021688;28;20033;-72
2022/09/18 09:20:26;;;;;;;4.05;1.20;;;;;;;12.09;94.87;98828.81;5022498;28;20044;-71
2022/09/18 09:23:02;;;;;;;4.22;1.10;;;;;;;12.30;93.33;98842.09;5018237;28;20547;-72
2022/09/18 09:26:06;;;;;;;4.05;1.10;;;;;;;11.81;94.72;98811.72;5029158;28;20033;-72
2022/09/18 09:28:43;;;;;;;3.90;1.10;;;;;;;11.70;97.74;98842.16;5027173;28;20064;-72
2022/09/18 09:31:12;;;;;;;2.78;0.90;;;;;;;11.53;99.91;98833.66;5027503;28;20087;-72
2022/09/18 09:34:03;;;;;;;3.35;0.82;;;;;;;11.69;98.08;98832.38;5023268;28;20031;-72
2022/09/18 09:36:31;;;;;;;2.05;0.85;;;;;;;11.93;95.70;98833.63;5028424;28;20052;-72
2022/09/18 09:39:14;;;;;;;4.20;1.00;;;;;;;12.27;95.33;98839.81;5028637;28;20124;-72
2022/09/18 09:41:50;;;;;;;4.32;1.23;;;;;;;12.23;91.68;98814.97;5028518;28;20025;-72
2022/09/18 09:44:45;;;;;;;6.65;1.13;;;;;;;12.08;94.17;98822.56;5030137;28;20021;-72
2022/09/18 09:47:29;;;;;;;2.13;0.95;;;;;;;12.47;92.49;98829.72;5022206;28;20106;-72
2022/09/18 09:50:31;;;;;;;1.33;0.80;;;;;;;12.25;92.03;98831.06;5027049;28;20029;-71
2022/09/18 09:53:02;;;;;;;1.95;0.60;;;;;;;12.29;91.25;98810.59;5028566;28;20025;-72
2022/09/18 09:55:51;;;;;;;3.55;1.00;;;;;;;12.59;89.54;98827.16;5026120;28;20039;-72
2022/09/18 09:58:16;;;;;;;;;;;;;;;12.96;87.18;98823.84;5027832;28;20091;-72
2022/09/18 10:00:49;;;;;;;6.75;1.80;;;;;;;12.98;86.26;98819.84;5027340;28;19920;-72
2022/09/18 10:03:29;;;;;;;4.07;1.10;;;;;;;13.13;85.20;98822.28;5028855;28;20535;-71
2022/09/18 10:06:29;;;;;;;3.15;0.98;;;;;;;13.65;81.55;98831.09;5029262;28;20025;-71
2022/09/18 10:08:54;;;;;;;;;;;;;;;13.66;80.68;98827.31;5023479;28;20022;-72
2022/09/18 10:11:20;;;;;;;4.85;1.10;;;;;;;13.84;77.67;98815.66;5026394;28;19920;-72
2022/09/18 10:13:51;;;;;;;2.80;0.70;;;;;;;13.81;77.96;98814.22;5027711;28;20534;-72
2022/09/18 10:16:40;;;;;;;3.00;0.90;;;;;;;13.86;76.96;98812.69;5027879;28;20053;-72
2022/09/18 10:19:09;;;;;;;4.43;0.93;;;;;;;14.59;73.43;98826.38;5036187;28;20041;-72
2022/09/18 10:21:37;;;;;;;4.15;1.00;;;;;;;14.33;73.80;98808.44;5023357;28;20037;-72
2022/09/18 10:24:17;;;;;;;4.05;1.00;;;;;;;14.53;74.47;98818.25;5024856;28;20033;-71
2022/09/18 10:26:48;;;;;;;5.97;0.70;;;;;;;15.49;70.58;98802.84;5025303;28;20379;-72
2022/09/18 10:29:16;;;;;;;6.07;1.00;;;;;;;15.41;69.69;98817.63;5022972;28;20028;-72
2022/09/18 10:31:52;;;;;;;4.60;0.90;;;;;;;15.56;69.09;98812.56;5025955;28;20033;-72
2022/09/18 10:34:41;;;;;;;2.63;0.68;;;;;;;15.19;70.47;98821.97;5019568;28;20119;-72
2022/09/18 10:37:15;;;;;;;7.32;1.10;;;;;;;16.09;66.56;98797.16;5025989;28;20348;-72
2022/09/18 10:39:50;;;;;;;6.45;0.80;;;;;;;17.11;62.63;98800.28;5023027;28;20107;-72
2022/09/18 10:42:19;;;;;;;5.07;0.80;;;;;;;16.60;63.35;98800.97;5026639;28;20040;-71
2022/09/18 10:44:52;;;;;;;;;;;;;;;16.42;63.96;98801.94;5028985;28;20033;-73
2022/09/18 10:47:23;;;;;;;5.78;0.52;;;;;;;16.14;64.13;98794.56;5024644;28;19944;-74
2022/09/18 10:49:57;;;;;;;2.70;0.65;;;;;;;15.95;62.55;98791.13;5024160;28;20557;-72
2022/09/18 10:52:26;;;;;;;9.40;0.98;;;;;;;16.44;62.38;98796.25;5036718;28;20032;-72
2022/09/18 10:55:04;;;;;;;7.45;0.80;;;;;;;16.77;61.60;98787.41;5023074;28;20021;-72
2022/09/18 10:57:35;;;;;;;3.55;0.70;;;;;;;17.35;60.56;98787.34;5025362;28;20044;-72
2022/09/18 11:00:28;;;;;;;2.63;0.70;;;;;;;17.74;58.18;98769.91;5023624;28;20097;-72
2022/09/18 11:03:02;;;;;;;5.05;0.60;;;;;;;18.31;56.29;98765.22;5022046;28;20550;-72
2022/09/18 11:05:34;;;;;;;3.85;0.47;;;;;;;17.65;57.21;98781.50;5025242;28;20061;-72
2022/09/18 11:08:05;;;;;;;6.90;0.70;;;;;;;18.79;54.97;98777.34;5029426;28;20076;-72
2022/09/18 11:10:32;;;;;;;3.50;0.70;;;;;;;18.23;55.04;98788.41;5025009;28;20047;-72
2022/09/18 11:13:00;;;;;;;3.28;0.40;;;;;;;19.67;52.06;98785.28;5027366;28;20033;-72
2022/09/18 11:15:34;;;;;;;6.95;0.63;;;;;;;20.66;49.46;98758.09;5022729;28;20064;-73
2022/09/18 11:18:04;;;;;;;3.60;0.45;;;;;;;19.39;50.08;98764.47;5026549;28;20032;-72
2022/09/18 11:20:43;;;;;;;2.90;0.57;;;;;;;19.70;49.79;98751.81;5026859;28;20372;-72
2022/09/18 11:23:29;;;;;;;2.97;0.73;;;;;;;19.64;49.82;98761.91;5021448;28;20029;-72
2022/09/18 11:26:25;;;;;;;4.28;0.57;;;;;;;18.62;51.24;98761.75;5031882;28;20057;-73
2022/09/18 11:29:22;;;;;;;1.90;0.45;;;;;;;19.37;50.30;98752.94;5027851;28;20037;-72
2022/09/18 11:32:10;;;;;;;2.38;0.50;;;;;;;19.38;50.75;98755.41;5025332;28;20399;-72
2022/09/18 11:34:37;;;;;;;1.67;0.50;;;;;;;17.26;54.27;98746.69;5023207;28;20159;-73
2022/09/18 11:37:11;;;;;;;6.05;0.70;;;;;;;16.83;55.05;98739.13;5039533;28;20705;-72
2022/09/18 11:39:42;;;;;;;2.70;0.50;;;;;;;16.81;56.01;98720.25;5028973;28;20395;-72
2022/09/18 11:42:12;;;;;;;2.03;0.70;;;;;;;17.39;54.86;98726.41;5025029;28;20037;-72
2022/09/18 11:44:38;;;;;;;2.03;0.43;;;;;;;16.16;56.12;98710.50;5029876;28;20033;-72
2022/09/18 11:47:35;;;;;;;2.53;0.68;;;;;;;16.17;57.11;98733.19;5028171;28;20116;-73